Terminal Aerodrome Forecast
Issued by NWS

Home | Current Version | Previous Version | Text Only | Print | Product List | Glossary On
Versions: 1 2 3 4 5 6 7 8 9 10 11 12 13 14 15 16 17 18 19 20 21 22
000
FTUS45 KPIH 191700
TAFSUN
TAF
KSUN 191720Z 1918/2018 VRB04KT 1SM -SN SCT008 BKN018 OVC030
     FM192100 16005KT 2SM -RASN BR SCT007 BKN012
     FM200200 VRB04KT 4SM -SN BR OVC008
     FM200700 32008KT P6SM VCSH SCT008 BKN060=

USA.gov is the U.S. government's official web portal to all federal, state and local government web resources and services.